Time;durP1;ratioP1;P1;durP2;ratioP2;P2;SDS_P1;SDS_P2;PMS_P1;PMS_P2;Temp;Humidity;BMP_temperature;BMP_pressure;BME280_temperature;BME280_humidity;BME280_pressure;Samples;Min_cycle;Max_cycle;Signal;HPM_P1;HPM_P2
2023/11/08 00:01:54;;;;;;;2.30;1.43;;;8.60;99.90;;;;;;5044024;28;20430;-65
2023/11/08 00:04:20;;;;;;;1.57;1.47;;;8.60;99.90;;;;;;5042211;28;20428;-65
2023/11/08 00:06:46;;;;;;;3.00;1.50;;;8.60;99.90;;;;;;5042943;28;20927;-65
2023/11/08 00:09:15;;;;;;;2.40;2.20;;;8.60;99.90;;;;;;5045745;28;20171;-66
2023/11/08 00:11:41;;;;;;;3.70;1.83;;;8.60;99.90;;;;;;5048784;28;20198;-65
2023/11/08 00:14:10;;;;;;;1.60;1.40;;;8.60;99.90;;;;;;5050263;28;20796;-65
2023/11/08 00:16:39;;;;;;;1.50;1.40;;;8.60;99.90;;;;;;5045073;28;20421;-65
2023/11/08 00:19:07;;;;;;;2.53;1.20;;;8.60;99.90;;;;;;5043498;28;20455;-65
2023/11/08 00:21:34;;;;;;;3.80;1.43;;;8.60;99.90;;;;;;5048618;28;20782;-65
2023/11/08 00:24:00;;;;;;;1.63;1.47;;;8.60;99.90;;;;;;5046820;28;20438;-66
2023/11/08 00:26:26;;;;;;;1.40;1.30;;;8.60;99.90;;;;;;5047237;28;20469;-65
2023/11/08 00:28:52;;;;;;;2.70;2.13;;;8.60;99.90;;;;;;5047531;28;20436;-65
2023/11/08 00:31:18;;;;;;;2.20;1.90;;;8.60;99.90;;;;;;5044901;28;20418;-65
2023/11/08 00:33:43;;;;;;;3.90;1.63;;;8.60;99.90;;;;;;5045126;28;20184;-65
2023/11/08 00:36:09;;;;;;;1.67;1.50;;;8.60;99.90;;;;;;5042528;28;20769;-65
2023/11/08 00:38:35;;;;;;;1.50;1.40;;;8.50;99.90;;;;;;5049688;28;20653;-65
2023/11/08 00:41:00;;;;;;;1.53;1.20;;;8.50;99.90;;;;;;5045552;28;20198;-65
2023/11/08 00:43:26;;;;;;;2.10;2.00;;;8.50;99.90;;;;;;5049124;28;20232;-65
2023/11/08 00:45:52;;;;;;;2.57;1.63;;;8.40;99.90;;;;;;5048221;28;20808;-65
2023/11/08 00:48:20;;;;;;;2.30;1.57;;;8.40;99.90;;;;;;5043270;28;20179;-65
2023/11/08 00:50:46;;;;;;;4.00;1.40;;;8.30;99.90;;;;;;5042470;28;20175;-65
2023/11/08 00:53:15;;;;;;;1.40;1.27;;;8.30;99.90;;;;;;5043186;28;20437;-64
2023/11/08 00:55:41;;;;;;;1.50;1.40;;;8.20;99.90;;;;;;5060281;28;20624;-65
2023/11/08 00:58:08;;;;;;;1.77;1.63;;;8.20;99.90;;;;;;5063788;28;21036;-66
2023/11/08 01:00:34;;;;;;;1.43;1.33;;;8.20;99.90;;;;;;5065501;28;20419;-65
2023/11/08 01:03:00;;;;;;;2.23;2.03;;;8.10;99.90;;;;;;5064951;28;20436;-65
2023/11/08 01:05:26;;;;;;;1.77;1.67;;;8.10;99.90;;;;;;5065608;28;20411;-65
2023/11/08 01:07:52;;;;;;;3.90;1.63;;;8.10;99.90;;;;;;5061366;28;20417;-65
2023/11/08 01:10:20;;;;;;;1.33;1.23;;;8.10;99.90;;;;;;5072754;28;20411;-65
2023/11/08 01:12:46;;;;;;;2.73;1.90;;;8.20;99.90;;;;;;5056043;28;20732;-65
2023/11/08 01:15:12;;;;;;;1.30;1.20;;;8.20;99.90;;;;;;5049629;28;20452;-65
2023/11/08 01:17:37;;;;;;;3.03;1.60;;;8.20;99.90;;;;;;5072497;28;20222;-65
2023/11/08 01:20:04;;;;;;;2.13;2.03;;;8.20;99.90;;;;;;5060181;28;21525;-65
2023/11/08 01:22:30;;;;;;;1.40;1.30;;;8.20;99.90;;;;;;5061731;28;20561;-65
2023/11/08 01:24:56;;;;;;;1.60;1.50;;;8.20;99.90;;;;;;5072425;28;20422;-65
2023/11/08 01:27:21;;;;;;;2.53;1.33;;;8.20;99.90;;;;;;5058884;28;20206;-65
2023/11/08 01:29:47;;;;;;;2.70;1.60;;;8.20;99.90;;;;;;5046156;28;20177;-65
2023/11/08 01:32:12;;;;;;;2.00;1.60;;;8.10;99.90;;;;;;5053601;28;20646;-65
2023/11/08 01:34:38;;;;;;;2.23;1.60;;;8.10;99.90;;;;;;5055118;28;20256;-65
2023/11/08 01:37:04;;;;;;;2.70;1.33;;;8.00;99.90;;;;;;5042592;28;20663;-65
2023/11/08 01:39:30;;;;;;;1.93;1.37;;;8.00;99.90;;;;;;5032126;28;20179;-65
2023/11/08 01:41:56;;;;;;;1.13;1.13;;;7.90;99.90;;;;;;5049189;28;20463;-65
2023/11/08 01:44:22;;;;;;;3.70;1.73;;;7.90;99.90;;;;;;5055802;28;20272;-65
2023/11/08 01:46:55;;;;;;;2.37;2.00;;;7.90;99.90;;;;;;5063882;28;20180;-65
2023/11/08 01:49:22;;;;;;;3.37;1.47;;;7.80;99.90;;;;;;5065175;28;20952;-65
2023/11/08 01:51:49;;;;;;;1.70;1.60;;;7.80;99.90;;;;;;5052363;28;20971;-65
2023/11/08 01:54:19;;;;;;;1.50;1.40;;;7.80;99.90;;;;;;5066973;28;20424;-65
2023/11/08 01:56:46;;;;;;;2.87;1.30;;;7.80;99.90;;;;;;5072023;28;20420;-65
2023/11/08 01:59:15;;;;;;;2.80;1.90;;;7.80;99.90;;;;;;5071971;28;20540;-65
2023/11/08 02:01:41;;;;;;;3.13;1.80;;;7.80;99.90;;;;;;5071329;28;20512;-65
2023/11/08 02:04:06;;;;;;;1.90;1.80;;;7.70;99.90;;;;;;5071830;28;20497;-65
2023/11/08 02:06:32;;;;;;;1.83;1.57;;;7.70;99.90;;;;;;5071666;28;20524;-65
2023/11/08 02:09:00;;;;;;;2.17;1.83;;;7.70;99.90;;;;;;5061123;28;20175;-65
2023/11/08 02:11:26;;;;;;;2.80;1.97;;;7.70;99.90;;;;;;5065408;28;20177;-65
2023/11/08 02:13:52;;;;;;;2.23;2.10;;;7.70;99.90;;;;;;5063339;28;20942;-65
2023/11/08 02:16:18;;;;;;;2.10;1.90;;;7.70;99.90;;;;;;5070609;28;20441;-65
2023/11/08 02:18:43;;;;;;;2.33;1.63;;;7.70;99.90;;;;;;5071684;28;20203;-65
2023/11/08 02:21:13;;;;;;;2.40;2.17;;;7.60;99.90;;;;;;5057345;28;20169;-66
2023/11/08 02:23:39;;;;;;;2.63;2.10;;;7.60;99.90;;;;;;5055377;28;20204;-65
2023/11/08 02:26:04;;;;;;;2.37;2.17;;;7.50;99.90;;;;;;5068379;28;20410;-65
2023/11/08 02:28:30;;;;;;;2.77;2.50;;;7.60;99.90;;;;;;5062149;28;20183;-65
2023/11/08 02:30:56;;;;;;;2.40;2.17;;;7.60;99.90;;;;;;5064451;28;20610;-65
2023/11/08 02:33:23;;;;;;;3.63;2.00;;;7.50;99.90;;;;;;5064098;28;20455;-64
2023/11/08 02:35:48;;;;;;;3.80;2.00;;;7.50;99.90;;;;;;5068529;28;20186;-66
2023/11/08 02:38:15;;;;;;;2.13;1.87;;;7.50;99.90;;;;;;5054900;28;20448;-65
2023/11/08 02:40:41;;;;;;;3.87;2.03;;;7.50;99.90;;;;;;5071685;28;20168;-65
2023/11/08 02:43:08;;;;;;;2.03;1.90;;;7.50;99.90;;;;;;5071194;28;20445;-65
2023/11/08 02:45:34;;;;;;;1.97;1.77;;;7.50;99.90;;;;;;5071949;28;20928;-65
2023/11/08 02:48:03;;;;;;;4.00;2.10;;;7.50;99.90;;;;;;5071026;28;20421;-65
2023/11/08 02:50:31;;;;;;;2.17;1.97;;;7.40;99.90;;;;;;5046619;28;20617;-65
2023/11/08 02:52:58;;;;;;;2.57;1.80;;;7.40;99.90;;;;;;5048418;28;20450;-65
2023/11/08 02:55:25;;;;;;;2.13;1.93;;;7.40;99.90;;;;;;5035991;28;20766;-65
2023/11/08 02:57:51;;;;;;;4.57;2.13;;;7.40;99.90;;;;;;5062587;28;20449;-65
2023/11/08 03:00:19;;;;;;;2.03;1.87;;;7.40;99.90;;;;;;5058130;28;20444;-66
2023/11/08 03:02:48;;;;;;;4.10;2.57;;;7.40;99.90;;;;;;5052418;28;20882;-66
2023/11/08 03:05:21;;;;;;;4.77;2.23;;;7.40;99.90;;;;;;5048544;28;21028;-66
2023/11/08 03:07:47;;;;;;;1.97;1.83;;;7.40;99.90;;;;;;5055373;28;20919;-65
2023/11/08 03:10:17;;;;;;;2.57;2.33;;;7.40;99.90;;;;;;5065078;28;20434;-67
2023/11/08 03:12:54;;;;;;;2.17;1.93;;;7.40;99.90;;;;;;5060573;28;20502;-65
2023/11/08 03:15:23;;;;;;;4.20;2.00;;;7.40;99.90;;;;;;5061018;28;20841;-66
2023/11/08 03:17:51;;;;;;;2.20;1.50;;;7.30;99.90;;;;;;5065511;28;20441;-65
2023/11/08 03:20:17;;;;;;;5.00;2.00;;;7.30;99.90;;;;;;5071114;28;20479;-65
2023/11/08 03:22:43;;;;;;;3.53;1.70;;;7.30;99.90;;;;;;5060947;28;20465;-66
2023/11/08 03:25:13;;;;;;;2.90;1.80;;;7.30;99.90;;;;;;5070799;28;20427;-65
2023/11/08 03:27:43;;;;;;;4.03;1.80;;;7.20;99.90;;;;;;5071625;28;20467;-65
2023/11/08 03:30:10;;;;;;;2.07;1.80;;;7.20;99.90;;;;;;5061496;28;20496;-65
2023/11/08 03:32:36;;;;;;;3.70;1.93;;;7.20;99.90;;;;;;5067392;28;20440;-65
2023/11/08 03:35:03;;;;;;;2.07;1.87;;;7.20;99.90;;;;;;5061174;28;20420;-65
2023/11/08 03:37:28;;;;;;;2.90;1.70;;;7.10;99.90;;;;;;5074698;28;20452;-66
2023/11/08 03:39:55;;;;;;;1.63;1.53;;;7.10;99.90;;;;;;5064681;28;20448;-65
2023/11/08 03:42:25;;;;;;;4.03;1.73;;;7.20;99.90;;;;;;5074663;28;20218;-65
2023/11/08 03:44:51;;;;;;;3.93;1.80;;;7.20;99.90;;;;;;5070953;28;20421;-65
2023/11/08 03:47:17;;;;;;;2.67;1.70;;;7.20;99.90;;;;;;5060020;28;20461;-65
2023/11/08 03:49:43;;;;;;;1.60;1.50;;;7.10;99.90;;;;;;5068028;28;20462;-65
2023/11/08 03:52:08;;;;;;;1.70;1.60;;;7.10;99.90;;;;;;5056252;28;20683;-65
2023/11/08 03:54:34;;;;;;;3.87;2.10;;;7.10;99.90;;;;;;5046368;28;20175;-65
2023/11/08 03:57:00;;;;;;;2.97;1.70;;;7.10;99.90;;;;;;5071578;28;20203;-65
2023/11/08 03:59:26;;;;;;;2.10;1.90;;;7.10;99.90;;;;;;5065928;28;20715;-65
2023/11/08 04:01:52;;;;;;;2.80;2.47;;;7.20;99.90;;;;;;5054846;28;20458;-65
2023/11/08 04:04:17;;;;;;;3.20;2.00;;;7.20;99.90;;;;;;5068002;28;20686;-65
2023/11/08 04:06:43;;;;;;;3.77;1.90;;;7.10;99.90;;;;;;5051978;28;20470;-65
2023/11/08 04:09:08;;;;;;;1.97;1.77;;;7.10;99.90;;;;;;5062241;28;20186;-65
2023/11/08 04:11:34;;;;;;;1.67;1.57;;;7.10;99.90;;;;;;5086409;22;20218;-62
2023/11/08 04:14:00;;;;;;;1.50;1.40;;;7.10;99.90;;;;;;5064308;28;20206;-63
2023/11/08 04:16:25;;;;;;;2.47;1.60;;;7.10;99.90;;;;;;5072103;28;20569;-64
2023/11/08 04:18:51;;;;;;;7.27;2.40;;;7.20;99.90;;;;;;5070391;28;20304;-63
2023/11/08 04:21:17;;;;;;;2.83;1.83;;;7.30;99.90;;;;;;5060607;28;20656;-63
2023/11/08 04:23:43;;;;;;;4.90;1.80;;;7.30;99.90;;;;;;5067865;28;20191;-64
2023/11/08 04:26:09;;;;;;;2.50;1.67;;;7.30;99.90;;;;;;5066405;28;20902;-63
2023/11/08 04:28:38;;;;;;;6.83;2.37;;;7.40;99.90;;;;;;5072804;28;20179;-63
2023/11/08 04:31:04;;;;;;;2.37;1.80;;;7.50;99.90;;;;;;5052134;28;20612;-63
2023/11/08 04:33:29;;;;;;;7.70;2.43;;;7.50;99.90;;;;;;5064736;28;20484;-64
2023/11/08 04:35:55;;;;;;;2.80;1.53;;;7.60;99.90;;;;;;5050612;28;20187;-62
2023/11/08 04:38:21;;;;;;;2.60;1.80;;;7.60;99.90;;;;;;5071110;28;20206;-64
2023/11/08 04:40:46;;;;;;;2.53;1.90;;;7.60;99.90;;;;;;5069820;28;20284;-64
2023/11/08 04:43:12;;;;;;;7.27;2.10;;;7.60;99.90;;;;;;5072156;28;20175;-62
2023/11/08 04:45:37;;;;;;;2.80;1.70;;;7.70;99.90;;;;;;5065168;28;20232;-61
2023/11/08 04:48:04;;;;;;;2.13;1.90;;;7.70;99.90;;;;;;5062095;28;20507;-62
2023/11/08 04:50:30;;;;;;;1.83;1.73;;;7.70;99.90;;;;;;5054858;28;20196;-63
2023/11/08 04:52:55;;;;;;;2.80;2.23;;;7.80;99.90;;;;;;5063675;28;21059;-64
2023/11/08 04:55:21;;;;;;;10.00;2.30;;;7.80;99.90;;;;;;5050538;28;20189;-65
2023/11/08 04:57:47;;;;;;;5.30;2.30;;;7.80;99.90;;;;;;5073077;28;20301;-62
2023/11/08 05:00:14;;;;;;;2.67;1.70;;;7.80;99.90;;;;;;5078043;28;20237;-63
2023/11/08 05:02:40;;;;;;;2.20;1.80;;;7.80;99.90;;;;;;5072957;28;20219;-61
2023/11/08 05:05:08;;;;;;;2.73;1.67;;;7.80;99.90;;;;;;5071876;28;20908;-60
2023/11/08 05:07:34;;;;;;;3.23;2.80;;;7.90;99.90;;;;;;5071720;28;20579;-61
2023/11/08 05:10:00;;;;;;;4.60;1.80;;;7.90;99.90;;;;;;5071345;28;20519;-62
2023/11/08 05:12:26;;;;;;;1.97;1.77;;;7.90;99.90;;;;;;5067674;28;20439;-61
2023/11/08 05:14:53;;;;;;;3.60;2.17;;;7.90;99.90;;;;;;5071211;28;20580;-64
2023/11/08 05:17:20;;;;;;;6.37;2.40;;;8.00;99.90;;;;;;5071591;28;20444;-63
2023/11/08 05:19:46;;;;;;;1.93;1.73;;;7.90;99.90;;;;;;5071569;28;20497;-64
2023/11/08 05:22:12;;;;;;;1.90;1.80;;;8.00;99.90;;;;;;5071136;28;20449;-64
2023/11/08 05:24:38;;;;;;;5.03;1.80;;;8.00;99.90;;;;;;5071223;28;20180;-63
2023/11/08 05:27:05;;;;;;;2.90;1.80;;;8.00;99.90;;;;;;5067698;28;20431;-61
2023/11/08 05:29:31;;;;;;;3.53;1.87;;;7.90;99.90;;;;;;5071317;28;20430;-63
2023/11/08 05:31:57;;;;;;;2.37;2.00;;;7.90;99.90;;;;;;5071085;28;20842;-63
2023/11/08 05:34:25;;;;;;;1.60;1.50;;;7.90;99.90;;;;;;5071592;28;20540;-62
2023/11/08 05:36:51;;;;;;;5.13;2.27;;;7.90;99.90;;;;;;5071153;28;20430;-63
2023/11/08 05:39:22;;;;;;;5.93;1.50;;;7.90;99.90;;;;;;5071268;28;20462;-60
2023/11/08 05:41:54;;;;;;;5.43;2.07;;;7.90;99.90;;;;;;5070590;28;20491;-62
2023/11/08 05:44:19;;;;;;;3.03;1.80;;;7.90;99.90;;;;;;5050837;28;20926;-64
2023/11/08 05:46:45;;;;;;;3.17;2.33;;;7.90;99.90;;;;;;5053921;28;20426;-63
2023/11/08 05:49:11;;;;;;;5.80;2.00;;;7.90;99.90;;;;;;5062162;28;20194;-63
2023/11/08 05:51:37;;;;;;;4.87;2.43;;;7.90;99.90;;;;;;5057188;28;20439;-64
2023/11/08 05:54:03;;;;;;;3.23;2.20;;;8.00;99.90;;;;;;5068813;28;20288;-63
2023/11/08 05:56:30;;;;;;;1.80;1.53;;;8.00;99.90;;;;;;5035763;28;20438;-63
2023/11/08 05:58:55;;;;;;;4.77;2.17;;;8.00;99.90;;;;;;5054381;28;20568;-62
2023/11/08 06:01:23;;;;;;;4.03;1.50;;;8.00;99.90;;;;;;5055769;28;20528;-61
2023/11/08 06:03:51;;;;;;;3.07;1.80;;;8.10;99.90;;;;;;5052689;28;20230;-64
2023/11/08 06:06:17;;;;;;;3.10;1.80;;;8.10;99.90;;;;;;5060080;28;20432;-62
2023/11/08 06:08:45;;;;;;;5.00;1.90;;;8.10;99.90;;;;;;5059080;28;20450;-63
2023/11/08 06:11:15;;;;;;;2.83;2.60;;;8.10;99.90;;;;;;5070298;28;21052;-62
2023/11/08 06:13:42;;;;;;;2.70;2.00;;;8.10;99.90;;;;;;5055216;28;20455;-64
2023/11/08 06:16:07;;;;;;;4.30;2.13;;;8.10;99.90;;;;;;5054746;28;20855;-63
2023/11/08 06:18:33;;;;;;;3.37;1.83;;;8.10;99.90;;;;;;5070724;28;20502;-63
2023/11/08 06:20:59;;;;;;;3.00;2.20;;;8.10;99.90;;;;;;5070619;28;20346;-64
2023/11/08 06:23:25;;;;;;;4.60;2.13;;;8.20;99.90;;;;;;5062400;28;20220;-63
2023/11/08 06:25:50;;;;;;;4.30;1.93;;;8.20;99.90;;;;;;5058720;28;20932;-64
2023/11/08 06:28:16;;;;;;;2.27;1.80;;;8.20;99.90;;;;;;5053644;28;20439;-63
2023/11/08 06:30:42;;;;;;;4.00;2.40;;;8.20;99.90;;;;;;5053083;28;20297;-64
2023/11/08 06:33:07;;;;;;;10.27;2.93;;;8.30;99.90;;;;;;5059587;28;20644;-64
2023/11/08 06:35:35;;;;;;;5.33;3.20;;;8.30;99.90;;;;;;5061162;28;20647;-63
2023/11/08 06:38:01;;;;;;;5.33;2.50;;;8.30;99.90;;;;;;5068506;28;20208;-63
2023/11/08 06:40:26;;;;;;;4.07;2.07;;;8.30;99.90;;;;;;5054027;28;20442;-64
2023/11/08 06:42:52;;;;;;;10.17;3.53;;;8.30;99.90;;;;;;5070206;28;20180;-63
2023/11/08 06:45:17;;;;;;;9.53;4.13;;;8.30;99.90;;;;;;5054398;28;20572;-63
2023/11/08 06:47:43;;;;;;;6.57;4.10;;;8.40;99.90;;;;;;5049424;28;20237;-63
2023/11/08 06:50:12;;;;;;;7.20;2.70;;;8.30;99.90;;;;;;5041117;28;20272;-62
2023/11/08 06:52:39;;;;;;;5.23;2.80;;;8.30;99.90;;;;;;5068039;28;20614;-63
2023/11/08 06:55:05;;;;;;;9.60;5.00;;;8.30;99.90;;;;;;5076333;28;20427;-62
2023/11/08 06:57:31;;;;;;;7.30;3.83;;;8.30;99.90;;;;;;5046344;28;20473;-62
2023/11/08 06:59:57;;;;;;;3.47;2.30;;;8.40;99.90;;;;;;5045643;28;20937;-63
2023/11/08 07:02:23;;;;;;;5.60;2.27;;;8.40;99.90;;;;;;5049719;28;20205;-61
2023/11/08 07:04:48;;;;;;;5.93;2.53;;;8.40;99.90;;;;;;5056380;28;20476;-64
2023/11/08 07:07:14;;;;;;;2.50;1.93;;;8.40;99.90;;;;;;5061223;28;20201;-63
2023/11/08 07:09:39;;;;;;;3.00;2.20;;;8.50;99.90;;;;;;5080544;28;20190;-63
2023/11/08 07:12:05;;;;;;;3.30;2.17;;;8.50;99.90;;;;;;5059908;28;20209;-63
2023/11/08 07:14:31;;;;;;;7.00;2.77;;;8.50;99.90;;;;;;5070968;28;20184;-63
2023/11/08 07:16:57;;;;;;;5.90;4.00;;;8.50;99.90;;;;;;5062699;28;20431;-63
2023/11/08 07:19:23;;;;;;;4.40;1.60;;;8.50;99.90;;;;;;5080613;28;20207;-63
2023/11/08 07:21:49;;;;;;;5.47;2.53;;;8.60;99.90;;;;;;5062202;28;20193;-63
2023/11/08 07:24:14;;;;;;;4.93;2.30;;;8.60;99.90;;;;;;5080346;28;20423;-64
2023/11/08 07:26:40;;;;;;;4.40;2.90;;;8.60;99.90;;;;;;5051425;28;20508;-63
2023/11/08 07:29:07;;;;;;;2.90;1.97;;;8.60;99.90;;;;;;5080720;28;20595;-63
2023/11/08 07:31:34;;;;;;;3.73;1.87;;;8.70;99.90;;;;;;5081147;28;20934;-63
2023/11/08 07:34:00;;;;;;;2.50;1.73;;;8.70;99.90;;;;;;5080153;28;20510;-62
2023/11/08 07:36:29;;;;;;;7.70;1.93;;;8.70;99.90;;;;;;5071716;28;20451;-63
2023/11/08 07:38:56;;;;;;;5.40;2.93;;;8.70;99.90;;;;;;5080089;28;20614;-63
2023/11/08 07:41:22;;;;;;;4.60;2.20;;;8.70;99.90;;;;;;5079877;28;20428;-63
2023/11/08 07:43:48;;;;;;;3.90;2.63;;;8.80;99.90;;;;;;5066649;28;20440;-63
2023/11/08 07:46:13;;;;;;;5.70;2.40;;;8.80;99.90;;;;;;5080035;28;20421;-63
2023/11/08 07:48:39;;;;;;;5.20;3.50;;;8.80;99.90;;;;;;5080299;28;20430;-64
2023/11/08 07:51:08;;;;;;;8.67;3.60;;;8.80;99.90;;;;;;5079701;28;20255;-64
2023/11/08 07:53:33;;;;;;;3.37;2.43;;;8.90;99.90;;;;;;5079953;28;20183;-67
2023/11/08 07:56:00;;;;;;;4.20;2.30;;;9.00;99.90;;;;;;5078158;28;20446;-63
2023/11/08 07:58:26;;;;;;;4.37;2.10;;;9.00;99.90;;;;;;5053302;28;20711;-67
2023/11/08 08:00:51;;;;;;;4.60;2.27;;;9.10;99.90;;;;;;5077465;28;20553;-70
2023/11/08 08:03:17;;;;;;;7.70;2.80;;;9.10;99.90;;;;;;5076915;28;20541;-65
2023/11/08 08:05:44;;;;;;;4.80;2.20;;;9.10;99.90;;;;;;5077852;28;20174;-63
2023/11/08 08:08:12;;;;;;;2.40;1.63;;;9.20;99.90;;;;;;5079777;28;20190;-63
2023/11/08 08:10:37;;;;;;;3.70;2.77;;;9.30;99.90;;;;;;5079096;28;20534;-64
2023/11/08 08:13:03;;;;;;;2.00;1.70;;;9.40;99.90;;;;;;5079211;28;20443;-64
2023/11/08 08:15:30;;;;;;;3.50;1.97;;;9.40;99.90;;;;;;5067269;28;20429;-64
2023/11/08 08:17:55;;;;;;;2.63;1.80;;;9.50;99.90;;;;;;5079471;28;20505;-63
2023/11/08 08:20:21;;;;;;;6.57;2.20;;;9.50;99.90;;;;;;5079378;28;20634;-64
2023/11/08 08:22:47;;;;;;;3.00;2.07;;;9.50;99.90;;;;;;5080034;28;20174;-63
2023/11/08 08:25:13;;;;;;;3.73;2.30;;;9.40;99.90;;;;;;5063751;28;20437;-64
2023/11/08 08:27:40;;;;;;;3.60;2.03;;;9.50;99.90;;;;;;5079578;28;20181;-63
2023/11/08 08:30:14;;;;;;;2.40;1.77;;;9.40;99.90;;;;;;5073295;28;20424;-63
2023/11/08 08:32:44;;;;;;;3.03;1.70;;;9.30;99.90;;;;;;5069151;28;20413;-63
2023/11/08 08:35:10;;;;;;;3.60;1.50;;;9.30;99.90;;;;;;5060904;28;20429;-63
2023/11/08 08:37:36;;;;;;;3.77;1.90;;;9.20;99.90;;;;;;5065704;28;20460;-63
2023/11/08 08:40:04;;;;;;;2.10;1.90;;;9.20;99.90;;;;;;5079513;28;20404;-62
2023/11/08 08:42:30;;;;;;;3.87;1.80;;;9.20;99.90;;;;;;5055082;28;20574;-64
2023/11/08 08:44:56;;;;;;;4.97;2.10;;;9.20;99.90;;;;;;5075111;28;20533;-63
2023/11/08 08:47:22;;;;;;;2.03;1.83;;;9.20;99.90;;;;;;5069934;28;20314;-63
2023/11/08 08:49:49;;;;;;;2.50;1.73;;;9.20;99.90;;;;;;5077228;28;20411;-63
2023/11/08 08:52:15;;;;;;;4.73;1.60;;;9.30;99.90;;;;;;5059649;28;20197;-63
2023/11/08 08:54:41;;;;;;;4.00;2.10;;;9.30;99.90;;;;;;5075530;28;20462;-63
2023/11/08 08:57:07;;;;;;;2.13;1.70;;;9.50;99.90;;;;;;5074871;28;20447;-63
2023/11/08 08:59:33;;;;;;;3.77;2.10;;;9.60;99.90;;;;;;5026818;28;20198;-64
2023/11/08 09:01:58;;;;;;;5.53;2.07;;;9.70;99.90;;;;;;5037181;28;20186;-64
2023/11/08 09:04:24;;;;;;;6.73;3.20;;;9.80;99.90;;;;;;5049219;28;20509;-64
2023/11/08 09:06:49;;;;;;;6.70;4.73;;;9.90;99.90;;;;;;5050517;28;20175;-63
2023/11/08 09:09:15;;;;;;;4.20;2.77;;;9.90;99.90;;;;;;5057795;28;20176;-63
2023/11/08 09:11:41;;;;;;;3.80;2.03;;;9.90;99.90;;;;;;5074008;28;20205;-63
2023/11/08 09:14:10;;;;;;;6.43;2.57;;;9.90;99.90;;;;;;5074042;28;20174;-62
2023/11/08 09:16:37;;;;;;;3.63;2.00;;;10.00;99.90;;;;;;5051790;28;20173;-61
2023/11/08 09:19:12;;;;;;;5.23;1.90;;;10.20;99.90;;;;;;5073678;28;20464;-63
2023/11/08 09:21:38;;;;;;;2.53;2.10;;;10.30;99.90;;;;;;5073581;28;20428;-63
2023/11/08 09:24:06;;;;;;;3.83;1.90;;;10.50;99.90;;;;;;5074787;28;20415;-63
2023/11/08 09:26:33;;;;;;;4.07;2.20;;;10.50;99.90;;;;;;5074198;28;20183;-63
2023/11/08 09:28:59;;;;;;;3.63;2.20;;;10.50;99.90;;;;;;5076078;28;20421;-62
2023/11/08 09:31:28;;;;;;;2.40;1.60;;;10.70;99.90;;;;;;5072135;28;20512;-63
2023/11/08 09:33:56;;;;;;;5.03;1.80;;;10.50;99.90;;;;;;5069349;28;20478;-63
2023/11/08 09:36:23;;;;;;;2.67;2.00;;;10.50;99.90;;;;;;5075499;28;20416;-64
2023/11/08 09:38:50;;;;;;;2.70;1.80;;;10.80;99.90;;;;;;5074703;28;20542;-63
2023/11/08 09:41:17;;;;;;;2.90;2.13;;;10.70;99.90;;;;;;5074604;28;20425;-64
2023/11/08 09:43:44;;;;;;;1.93;1.60;;;10.90;99.90;;;;;;5047751;28;20724;-64
2023/11/08 09:46:10;;;;;;;4.17;2.07;;;10.80;99.90;;;;;;5073982;28;20496;-66
2023/11/08 09:48:36;;;;;;;4.20;1.60;;;10.90;99.90;;;;;;5064878;28;20455;-66
2023/11/08 09:51:02;;;;;;;6.40;2.40;;;10.80;99.90;;;;;;5071969;28;20501;-71
2023/11/08 09:53:29;;;;;;;5.67;2.47;;;11.10;99.90;;;;;;5070721;28;20178;-62
2023/11/08 09:55:58;;;;;;;2.20;2.00;;;10.90;99.90;;;;;;5072997;28;20473;-64
2023/11/08 09:58:24;;;;;;;3.37;2.20;;;10.80;99.90;;;;;;5072121;28;20495;-64
2023/11/08 10:00:55;;;;;;;3.43;2.10;;;10.80;99.90;;;;;;5041832;28;20684;-63
2023/11/08 10:03:25;;;;;;;2.70;1.77;;;10.80;99.90;;;;;;5057976;28;20492;-62
2023/11/08 10:05:52;;;;;;;3.73;1.97;;;11.00;99.90;;;;;;5073511;28;20778;-65
2023/11/08 10:08:18;;;;;;;1.73;1.63;;;11.00;99.90;;;;;;5073515;28;20945;-64
2023/11/08 10:10:48;;;;;;;2.40;2.10;;;10.90;99.90;;;;;;5073198;28;20448;-65
2023/11/08 10:13:15;;;;;;;3.70;1.90;;;10.90;99.90;;;;;;5069896;28;20995;-64
2023/11/08 10:15:41;;;;;;;2.93;1.80;;;10.90;99.90;;;;;;5068124;28;20434;-63
2023/11/08 10:18:08;;;;;;;2.53;1.70;;;11.00;99.90;;;;;;5063018;28;20912;-62
2023/11/08 10:20:37;;;;;;;1.40;1.30;;;10.90;99.90;;;;;;5073571;28;20428;-63
2023/11/08 10:23:06;;;;;;;2.97;1.47;;;10.90;99.90;;;;;;5073087;28;20968;-62
2023/11/08 10:25:32;;;;;;;3.93;1.60;;;11.00;99.90;;;;;;5062717;28;20428;-62
2023/11/08 10:28:03;;;;;;;2.83;1.87;;;11.10;99.90;;;;;;5066021;28;20779;-64
2023/11/08 10:30:36;;;;;;;5.70;1.90;;;11.10;99.90;;;;;;5070567;28;20525;-63
2023/11/08 10:33:12;;;;;;;4.03;1.63;;;11.20;99.90;;;;;;5073134;28;20413;-62
2023/11/08 10:35:42;;;;;;;3.40;2.10;;;11.10;99.90;;;;;;5062134;28;20428;-63
2023/11/08 10:38:11;;;;;;;2.47;1.80;;;11.10;99.90;;;;;;5045570;28;20943;-63
2023/11/08 10:40:37;;;;;;;4.37;1.60;;;11.20;99.90;;;;;;5051574;28;20504;-66
2023/11/08 10:43:04;;;;;;;2.13;1.93;;;11.20;99.90;;;;;;5050959;28;20426;-64
2023/11/08 10:45:32;;;;;;;5.47;1.97;;;11.30;99.90;;;;;;5069837;28;20589;-64
2023/11/08 10:47:59;;;;;;;2.33;1.60;;;11.20;99.90;;;;;;5051082;28;20443;-64
2023/11/08 10:50:27;;;;;;;5.33;1.90;;;11.10;99.90;;;;;;5041837;28;20454;-64
2023/11/08 10:52:53;;;;;;;4.07;2.53;;;11.20;99.90;;;;;;5060139;28;20448;-65
2023/11/08 10:55:25;;;;;;;1.80;1.43;;;11.20;99.90;;;;;;5070141;28;20442;-65
2023/11/08 10:57:53;;;;;;;5.80;2.50;;;11.30;99.90;;;;;;5067500;28;20460;-63
2023/11/08 11:00:21;;;;;;;2.60;1.80;;;11.30;99.90;;;;;;5051773;28;20450;-63
2023/11/08 11:02:57;;;;;;;3.47;1.60;;;11.30;99.90;;;;;;5044604;28;20891;-63
2023/11/08 11:05:23;;;;;;;2.37;2.17;;;11.30;99.90;;;;;;5043401;28;20420;-62
2023/11/08 11:07:50;;;;;;;4.40;1.60;;;11.30;99.90;;;;;;5061621;28;20440;-62
2023/11/08 11:10:17;;;;;;;2.80;1.63;;;11.30;99.90;;;;;;5032370;28;20452;-63
2023/11/08 11:13:04;;;;;;;3.47;1.87;;;11.40;99.90;;;;;;5044929;28;20531;-62
2023/11/08 11:15:52;;;;;;;3.67;2.17;;;11.50;99.90;;;;;;5043126;28;20874;-66
2023/11/08 11:18:21;;;;;;;2.87;1.70;;;11.50;99.90;;;;;;5039470;28;20563;-64
2023/11/08 11:20:55;;;;;;;2.03;1.77;;;11.60;99.90;;;;;;5051963;28;20443;-66
2023/11/08 11:23:39;;;;;;;2.73;1.40;;;11.60;99.90;;;;;;5032798;28;20436;-63
2023/11/08 11:26:05;;;;;;;2.73;2.40;;;11.50;99.90;;;;;;5037776;28;20434;-64
2023/11/08 11:28:51;;;;;;;2.33;2.10;;;11.50;99.90;;;;;;5051654;28;20407;-64
2023/11/08 11:31:40;;;;;;;1.77;1.50;;;11.40;99.90;;;;;;5059395;28;20847;-64
2023/11/08 11:34:30;;;;;;;2.40;2.07;;;11.30;99.90;;;;;;5065250;28;20421;-63
2023/11/08 11:37:13;;;;;;;3.73;1.40;;;11.40;99.90;;;;;;5044597;28;20477;-63
2023/11/08 11:39:51;;;;;;;2.57;1.70;;;11.30;99.90;;;;;;5038754;28;20465;-63
2023/11/08 11:42:18;;;;;;;2.17;1.60;;;11.30;99.90;;;;;;5053758;28;20404;-62
2023/11/08 11:44:49;;;;;;;2.13;1.50;;;11.40;99.90;;;;;;5041886;28;20520;-63
2023/11/08 11:47:27;;;;;;;6.00;1.90;;;11.40;99.90;;;;;;5032684;28;20454;-65
2023/11/08 11:50:01;;;;;;;3.80;1.60;;;11.40;99.90;;;;;;5056842;28;20428;-62
2023/11/08 11:52:28;;;;;;;2.13;1.93;;;11.40;99.90;;;;;;5055865;28;20492;-62
2023/11/08 11:54:56;;;;;;;4.70;2.50;;;11.60;99.90;;;;;;5054257;28;20429;-62
2023/11/08 11:57:24;;;;;;;5.73;1.60;;;11.50;99.90;;;;;;5067336;28;20465;-63
2023/11/08 11:59:59;;;;;;;1.93;1.60;;;11.50;99.90;;;;;;5057974;28;20424;-62
2023/11/08 12:02:28;;;;;;;2.10;1.30;;;11.50;99.90;;;;;;5057223;28;20875;-63
2023/11/08 12:04:56;;;;;;;1.80;1.60;;;11.50;99.90;;;;;;5073070;28;21044;-63
2023/11/08 12:07:22;;;;;;;1.97;1.30;;;11.50;99.90;;;;;;5041352;28;20456;-65
2023/11/08 12:09:48;;;;;;;4.90;4.50;;;11.40;99.90;;;;;;5051538;28;20416;-63
2023/11/08 12:12:28;;;;;;;2.07;1.23;;;11.50;99.90;;;;;;5060495;28;20445;-63
2023/11/08 12:14:55;;;;;;;1.90;1.53;;;11.50;99.90;;;;;;5066091;28;20436;-63
2023/11/08 12:17:21;;;;;;;3.20;1.70;;;11.40;99.90;;;;;;5048197;28;20455;-63
2023/11/08 12:19:46;;;;;;;2.47;1.93;;;11.40;99.90;;;;;;5041442;28;20416;-63
2023/11/08 12:22:12;;;;;;;2.20;1.53;;;11.20;99.90;;;;;;5065580;28;20649;-63
2023/11/08 12:24:38;;;;;;;4.03;1.70;;;11.20;99.90;;;;;;5065477;28;20572;-63
2023/11/08 12:27:05;;;;;;;4.07;1.70;;;11.10;99.90;;;;;;5054670;28;20168;-63
2023/11/08 12:29:31;;;;;;;3.53;2.20;;;11.00;99.90;;;;;;5073903;28;20176;-63
2023/11/08 12:31:57;;;;;;;5.83;2.20;;;10.90;99.90;;;;;;5048533;28;20505;-62
2023/11/08 12:34:25;;;;;;;3.40;1.40;;;11.00;99.90;;;;;;5062743;28;20413;-65
2023/11/08 12:36:52;;;;;;;2.93;1.80;;;11.10;99.90;;;;;;5052659;28;20445;-63
2023/11/08 12:39:25;;;;;;;1.90;1.70;;;11.30;99.90;;;;;;5053871;28;20461;-63
2023/11/08 12:41:53;;;;;;;2.33;1.60;;;11.40;99.90;;;;;;5041919;28;20579;-63
2023/11/08 12:44:20;;;;;;;1.97;1.57;;;11.30;99.90;;;;;;5040471;28;20411;-62
2023/11/08 12:46:53;;;;;;;3.03;1.90;;;11.20;99.90;;;;;;5055785;28;20429;-62
2023/11/08 12:49:32;;;;;;;2.90;1.63;;;11.30;99.90;;;;;;5053304;28;20536;-65
2023/11/08 12:52:06;;;;;;;2.17;1.80;;;11.40;99.90;;;;;;5062309;28;20493;-62
2023/11/08 12:54:32;;;;;;;2.53;1.70;;;11.40;99.90;;;;;;5045473;28;20437;-62